Time;durP1;ratioP1;P1;durP2;ratioP2;P2;SDS_P1;SDS_P2;PMS_P1;PMS_P2;Temp;Humidity;BMP_temperature;BMP_pressure;BME280_temperature;BME280_humidity;BME280_pressure;Samples;Min_cycle;Max_cycle;Signal;HPM_P1;HPM_P2
2022/01/06 00:02:13;;;;;;;1.27;0.80;;;23.30;51.20;;;;;;5061775;28;20306;-55
2022/01/06 00:04:43;;;;;;;1.50;0.88;;;23.30;51.20;;;;;;5050978;28;20301;-45
2022/01/06 00:07:14;;;;;;;2.25;1.00;;;23.30;51.20;;;;;;5067570;28;20219;-43
2022/01/06 00:09:47;;;;;;;2.08;0.80;;;23.30;51.30;;;;;;5049942;28;20227;-42
2022/01/06 00:12:23;;;;;;;1.02;0.75;;;23.30;51.20;;;;;;5052506;28;20223;-42
2022/01/06 00:15:01;;;;;;;1.65;1.08;;;23.30;51.20;;;;;;5051817;28;20249;-42
2022/01/06 00:17:43;;;;;;;1.98;0.93;;;23.30;51.20;;;;;;5057700;28;20202;-48
2022/01/06 00:23:23;;;;;;;1.27;0.80;;;23.30;51.20;;;;;;5062646;28;20253;-39
2022/01/06 00:25:54;;;;;;;1.55;1.05;;;23.30;51.10;;;;;;5058937;28;20231;-46
2022/01/06 00:28:26;;;;;;;1.60;0.80;;;23.30;51.20;;;;;;5048656;28;20715;-51
2022/01/06 00:30:57;;;;;;;1.63;1.23;;;23.30;51.20;;;;;;5066683;28;20278;-50
2022/01/06 00:33:30;;;;;;;2.60;1.05;;;23.40;51.20;;;;;;5049520;28;20219;-44
2022/01/06 00:36:00;;;;;;;1.42;0.80;;;23.40;51.20;;;;;;5059926;28;20654;-45
2022/01/06 00:38:31;;;;;;;2.38;1.00;;;23.40;51.10;;;;;;5052057;28;20638;-47
2022/01/06 00:41:01;;;;;;;1.90;1.00;;;23.40;51.10;;;;;;5051740;28;20222;-48
2022/01/06 00:43:34;;;;;;;1.25;0.85;;;23.40;51.00;;;;;;5061683;28;20223;-49
2022/01/06 00:46:04;;;;;;;2.13;0.90;;;23.40;51.10;;;;;;5064987;28;20302;-42
2022/01/06 00:48:35;;;;;;;1.33;0.70;;;23.40;51.00;;;;;;5064714;28;20286;-48
2022/01/06 00:51:05;;;;;;;2.35;0.90;;;23.40;51.00;;;;;;5046906;28;20639;-40
2022/01/06 00:53:36;;;;;;;0.80;0.80;;;23.40;51.10;;;;;;5060039;28;20757;-44
2022/01/06 00:56:06;;;;;;;2.15;1.00;;;23.40;51.10;;;;;;5056841;28;20661;-48
2022/01/06 00:58:39;;;;;;;1.85;1.05;;;23.40;51.10;;;;;;5059723;28;20223;-43
2022/01/06 01:01:09;;;;;;;1.13;0.88;;;23.50;51.10;;;;;;5048885;28;20294;-42
2022/01/06 01:03:40;;;;;;;1.30;0.82;;;23.50;51.10;;;;;;5048163;28;20219;-39
2022/01/06 01:06:10;;;;;;;1.23;0.68;;;23.50;51.10;;;;;;5063926;28;20287;-45
2022/01/06 01:08:41;;;;;;;2.15;0.80;;;23.50;51.00;;;;;;5058124;28;20617;-47
2022/01/06 01:11:14;;;;;;;1.42;0.90;;;23.50;50.90;;;;;;5039108;28;20290;-43
2022/01/06 01:13:55;;;;;;;2.40;0.95;;;23.50;50.90;;;;;;5054211;28;20302;-44
2022/01/06 01:16:29;;;;;;;1.13;1.02;;;23.50;50.90;;;;;;5060302;28;20540;-42
2022/01/06 01:19:03;;;;;;;1.65;1.00;;;23.60;50.90;;;;;;5050720;28;20195;-43
2022/01/06 01:21:33;;;;;;;1.80;1.08;;;23.60;50.80;;;;;;5046538;28;20284;-45
2022/01/06 01:24:04;;;;;;;2.35;1.10;;;23.60;50.80;;;;;;5065011;28;20717;-51
2022/01/06 01:26:34;;;;;;;1.20;0.80;;;23.60;50.80;;;;;;5060223;28;20233;-54
2022/01/06 01:29:14;;;;;;;1.00;0.80;;;23.60;50.80;;;;;;5052112;28;20235;-43
2022/01/06 01:31:47;;;;;;;1.33;1.00;;;23.60;50.80;;;;;;5055440;28;20301;-48
2022/01/06 01:34:22;;;;;;;1.95;1.00;;;23.60;50.90;;;;;;5053926;28;20690;-46
2022/01/06 01:36:55;;;;;;;1.33;1.00;;;23.60;50.80;;;;;;5049359;28;20213;-43
2022/01/06 01:39:27;;;;;;;2.03;1.00;;;23.60;51.20;;;;;;5052632;28;20282;-44
2022/01/06 01:41:57;;;;;;;3.17;1.40;;;23.60;50.80;;;;;;5047126;28;20629;-52
2022/01/06 01:44:32;;;;;;;2.75;1.30;;;23.60;50.70;;;;;;5062028;28;20289;-47
2022/01/06 01:47:08;;;;;;;2.10;0.93;;;23.70;50.70;;;;;;5050377;28;20226;-45
2022/01/06 01:49:49;;;;;;;1.92;1.00;;;23.60;50.70;;;;;;5048664;28;20191;-48
2022/01/06 01:52:19;;;;;;;1.65;1.00;;;23.70;50.60;;;;;;5048342;28;20215;-50
2022/01/06 01:54:50;;;;;;;2.33;1.20;;;23.70;50.60;;;;;;5050013;28;20326;-45
2022/01/06 01:57:20;;;;;;;1.45;0.90;;;23.70;50.60;;;;;;5065046;28;20195;-50
2022/01/06 01:59:54;;;;;;;2.42;0.90;;;23.70;50.60;;;;;;5065316;28;20626;-41
2022/01/06 02:02:25;;;;;;;1.98;1.00;;;23.70;50.60;;;;;;5046330;28;20502;-45
2022/01/06 02:04:55;;;;;;;2.30;1.10;;;23.70;50.60;;;;;;5048529;28;20671;-58
2022/01/06 02:07:26;;;;;;;1.77;0.90;;;23.70;50.60;;;;;;5051479;28;20286;-39
2022/01/06 02:09:56;;;;;;;1.73;1.08;;;23.70;50.50;;;;;;5052173;28;20199;-42
2022/01/06 02:12:32;;;;;;;2.72;0.88;;;23.70;50.50;;;;;;5061516;28;20307;-51
2022/01/06 02:15:05;;;;;;;2.03;1.38;;;23.70;50.50;;;;;;5064497;28;20218;-39
2022/01/06 02:17:36;;;;;;;1.58;1.10;;;23.70;50.50;;;;;;5051451;28;20204;-43
2022/01/06 02:20:10;;;;;;;1.95;1.08;;;23.70;50.50;;;;;;5048625;28;20199;-48
2022/01/06 02:22:41;;;;;;;1.92;0.90;;;23.70;50.50;;;;;;5058358;28;20233;-52
2022/01/06 02:25:17;;;;;;;2.17;1.08;;;23.70;50.50;;;;;;5061681;28;20210;-45
2022/01/06 02:27:50;;;;;;;1.98;1.10;;;23.70;50.50;;;;;;5056663;28;20231;-39
2022/01/06 02:30:22;;;;;;;2.83;1.13;;;23.70;50.40;;;;;;5049990;28;20191;-39
2022/01/06 02:32:53;;;;;;;2.05;1.13;;;23.70;50.40;;;;;;5063952;28;20302;-40
2022/01/06 02:35:26;;;;;;;2.15;1.00;;;23.70;50.50;;;;;;5046883;28;20228;-40
2022/01/06 02:37:57;;;;;;;1.50;1.00;;;23.70;50.40;;;;;;5057272;28;20286;-45
2022/01/06 02:40:29;;;;;;;1.10;1.00;;;23.70;50.50;;;;;;5058996;28;20226;-39
2022/01/06 02:43:02;;;;;;;2.42;1.02;;;23.70;50.50;;;;;;5054970;28;20375;-53
2022/01/06 02:45:33;;;;;;;1.40;0.95;;;23.70;50.50;;;;;;5054770;28;20191;-41
2022/01/06 02:48:08;;;;;;;2.05;1.00;;;23.70;50.50;;;;;;5045599;28;20195;-50
2022/01/06 02:50:42;;;;;;;2.55;0.90;;;23.70;50.40;;;;;;5050638;28;20203;-51
2022/01/06 02:53:13;;;;;;;2.33;1.30;;;23.70;50.40;;;;;;5068334;28;20264;-45
2022/01/06 02:55:50;;;;;;;2.83;1.27;;;23.70;50.20;;;;;;5051084;28;20191;-42
2022/01/06 02:58:21;;;;;;;2.17;1.27;;;23.70;50.30;;;;;;5051710;28;20647;-44
2022/01/06 03:00:52;;;;;;;3.70;1.33;;;23.70;50.30;;;;;;5058285;28;20544;-40
2022/01/06 03:03:23;;;;;;;2.05;0.90;;;23.70;50.20;;;;;;5062623;28;20260;-50
2022/01/06 03:05:55;;;;;;;2.35;1.10;;;23.70;50.20;;;;;;5052290;28;20200;-45
2022/01/06 03:08:27;;;;;;;1.33;0.95;;;23.70;50.20;;;;;;5062902;28;20239;-52
2022/01/06 03:10:57;;;;;;;3.30;1.35;;;23.70;50.20;;;;;;5061273;28;20301;-45
2022/01/06 03:13:28;;;;;;;2.35;1.35;;;23.70;50.20;;;;;;5051830;28;20280;-50
2022/01/06 03:15:59;;;;;;;2.53;1.17;;;23.70;50.20;;;;;;5061692;28;20284;-47
2022/01/06 03:18:29;;;;;;;2.45;1.17;;;23.70;50.20;;;;;;5059819;28;20201;-52
2022/01/06 03:21:01;;;;;;;3.25;1.30;;;23.70;50.30;;;;;;5052618;28;20221;-53
2022/01/06 03:23:32;;;;;;;1.80;1.00;;;23.70;50.20;;;;;;5051343;28;20266;-50
2022/01/06 03:26:02;;;;;;;2.42;1.20;;;23.70;50.10;;;;;;5067760;28;20214;-41
2022/01/06 03:28:33;;;;;;;2.35;1.20;;;23.70;50.00;;;;;;5049558;28;20277;-55
2022/01/06 03:31:03;;;;;;;3.28;1.10;;;23.70;50.00;;;;;;5061921;28;20310;-55
2022/01/06 03:33:34;;;;;;;2.38;1.10;;;23.80;50.00;;;;;;5052387;28;20243;-52
2022/01/06 03:36:06;;;;;;;3.90;1.20;;;23.70;49.90;;;;;;5050511;28;20282;-51
2022/01/06 03:38:37;;;;;;;1.85;1.08;;;23.70;49.90;;;;;;5050801;28;21409;-46
2022/01/06 03:41:07;;;;;;;2.22;1.20;;;23.70;50.00;;;;;;5066009;28;20290;-47
2022/01/06 03:43:38;;;;;;;2.25;1.20;;;23.70;49.90;;;;;;5050581;28;20302;-43
2022/01/06 03:46:08;;;;;;;2.10;1.20;;;23.70;49.90;;;;;;5065406;28;20285;-45
2022/01/06 03:48:39;;;;;;;2.20;1.20;;;23.70;49.90;;;;;;5055002;28;20810;-52
2022/01/06 03:51:12;;;;;;;3.00;1.52;;;23.70;49.90;;;;;;5045361;28;20632;-51
2022/01/06 03:53:42;;;;;;;2.95;1.33;;;23.70;49.90;;;;;;5061939;28;20225;-52
2022/01/06 03:56:13;;;;;;;2.80;1.40;;;23.80;49.90;;;;;;5063966;28;20203;-43
2022/01/06 03:58:44;;;;;;;2.75;1.33;;;23.70;49.80;;;;;;5068472;28;20339;-41
2022/01/06 04:01:15;;;;;;;2.22;1.13;;;23.70;49.80;;;;;;5051022;28;20203;-47
2022/01/06 04:03:47;;;;;;;1.73;1.00;;;23.70;49.90;;;;;;5050794;28;20310;-48
2022/01/06 04:06:20;;;;;;;3.38;1.15;;;23.70;49.90;;;;;;5058971;28;20231;-39
2022/01/06 04:08:50;;;;;;;2.50;1.30;;;23.70;49.90;;;;;;5064220;28;20281;-41
2022/01/06 04:11:28;;;;;;;2.05;1.25;;;23.70;49.90;;;;;;5055668;28;20290;-40
2022/01/06 04:13:59;;;;;;;1.98;1.08;;;23.70;49.90;;;;;;5065062;28;20254;-39
2022/01/06 04:16:30;;;;;;;2.30;1.60;;;23.70;49.90;;;;;;5062139;28;20223;-50
2022/01/06 04:19:00;;;;;;;2.17;1.00;;;23.70;49.90;;;;;;5065079;28;20203;-51
2022/01/06 04:21:33;;;;;;;3.10;1.48;;;23.70;49.90;;;;;;5061439;28;20293;-42
2022/01/06 04:24:03;;;;;;;3.25;1.48;;;23.70;49.90;;;;;;5055790;28;20249;-49
2022/01/06 04:26:34;;;;;;;1.63;1.15;;;23.70;49.90;;;;;;5051159;28;20231;-47
2022/01/06 04:29:04;;;;;;;3.00;1.58;;;23.70;50.00;;;;;;5050999;28;20224;-47
2022/01/06 04:31:35;;;;;;;2.35;1.23;;;23.70;50.00;;;;;;5063973;28;20283;-39
2022/01/06 04:34:05;;;;;;;3.22;1.30;;;23.70;50.00;;;;;;5048897;28;20656;-39
2022/01/06 04:36:39;;;;;;;2.88;1.20;;;23.70;49.90;;;;;;5064504;28;20662;-40
2022/01/06 04:39:10;;;;;;;2.55;1.42;;;23.70;49.80;;;;;;5051074;28;20239;-39
2022/01/06 04:41:40;;;;;;;4.28;1.27;;;23.70;49.90;;;;;;5055033;28;20234;-46
2022/01/06 04:44:10;;;;;;;3.22;1.42;;;23.70;49.70;;;;;;5060810;28;20698;-47
2022/01/06 04:46:41;;;;;;;3.95;1.38;;;23.70;49.70;;;;;;5061676;28;20282;-40
2022/01/06 04:49:12;;;;;;;2.75;1.05;;;23.70;49.70;;;;;;5049901;28;20196;-47
2022/01/06 04:51:44;;;;;;;3.17;1.42;;;23.70;49.70;;;;;;5048424;28;20718;-53
2022/01/06 04:54:14;;;;;;;3.45;1.40;;;23.70;49.70;;;;;;5061916;28;20297;-47
2022/01/06 04:56:45;;;;;;;4.40;1.67;;;23.70;49.70;;;;;;5062492;28;20282;-56
2022/01/06 04:59:15;;;;;;;2.08;1.13;;;23.70;49.70;;;;;;5061391;28;20807;-47
2022/01/06 05:01:46;;;;;;;3.58;1.80;;;23.70;49.70;;;;;;5059831;28;20243;-42
2022/01/06 05:04:16;;;;;;;2.42;1.60;;;23.70;49.80;;;;;;5059524;28;20282;-54
2022/01/06 05:06:50;;;;;;;3.53;1.60;;;23.70;49.70;;;;;;5067359;28;20222;-54
2022/01/06 05:09:21;;;;;;;3.08;1.50;;;23.70;49.70;;;;;;5049355;28;20282;-42
2022/01/06 05:11:51;;;;;;;2.35;1.50;;;23.70;49.70;;;;;;5060715;28;20297;-53
2022/01/06 05:14:22;;;;;;;2.72;1.60;;;23.70;49.90;;;;;;5054661;28;20765;-43
2022/01/06 05:16:53;;;;;;;3.13;1.77;;;23.70;49.90;;;;;;5052237;28;20275;-45
2022/01/06 05:19:23;;;;;;;3.38;1.40;;;23.70;49.90;;;;;;5060819;28;20232;-53
2022/01/06 05:21:55;;;;;;;2.83;1.60;;;23.70;49.80;;;;;;5048193;28;20314;-54
2022/01/06 05:24:26;;;;;;;2.45;1.63;;;23.70;49.70;;;;;;5065302;28;20293;-49
2022/01/06 05:26:57;;;;;;;3.75;1.75;;;23.70;49.60;;;;;;5060056;28;20286;-52
2022/01/06 05:29:28;;;;;;;2.65;1.85;;;23.70;49.60;;;;;;5060859;28;20663;-54
2022/01/06 05:31:59;;;;;;;4.03;1.80;;;23.60;49.50;;;;;;5061203;28;20250;-47
2022/01/06 05:34:29;;;;;;;3.10;1.80;;;23.70;49.60;;;;;;5061686;28;20369;-52
2022/01/06 05:37:02;;;;;;;2.90;1.90;;;23.70;49.60;;;;;;5059533;28;20700;-57
2022/01/06 05:39:32;;;;;;;2.33;1.67;;;23.70;49.60;;;;;;5052100;28;20278;-49
2022/01/06 05:42:02;;;;;;;2.80;1.80;;;23.60;49.60;;;;;;5049866;28;20294;-50
2022/01/06 05:44:34;;;;;;;4.53;1.98;;;23.70;49.70;;;;;;5048366;28;20199;-43
2022/01/06 05:47:05;;;;;;;4.47;2.50;;;23.60;49.60;;;;;;5050860;28;20207;-47
2022/01/06 05:49:36;;;;;;;3.70;2.25;;;23.60;49.70;;;;;;5041873;28;20283;-42
2022/01/06 05:52:08;;;;;;;3.60;2.55;;;23.60;49.70;;;;;;5046345;28;20254;-53
2022/01/06 05:54:39;;;;;;;3.00;2.40;;;23.60;49.80;;;;;;5044822;28;20302;-52
2022/01/06 05:57:10;;;;;;;5.15;2.90;;;23.60;49.80;;;;;;5064524;28;20214;-52
2022/01/06 05:59:41;;;;;;;7.47;3.80;;;23.60;49.80;;;;;;5061873;28;20464;-57
2022/01/06 06:02:11;;;;;;;8.02;3.60;;;23.60;49.80;;;;;;5052107;28;20313;-50
2022/01/06 06:04:42;;;;;;;9.57;5.03;;;23.60;49.70;;;;;;5054602;28;20256;-57
2022/01/06 06:07:14;;;;;;;11.00;5.30;;;23.60;49.70;;;;;;5059918;28;20291;-54
2022/01/06 06:09:44;;;;;;;11.05;4.40;;;23.60;49.60;;;;;;5049219;28;20207;-53
2022/01/06 06:12:15;;;;;;;6.57;3.97;;;23.60;49.60;;;;;;5048062;28;20314;-54
2022/01/06 06:14:49;;;;;;;6.90;4.20;;;23.60;49.60;;;;;;5048170;28;20226;-46
2022/01/06 06:17:20;;;;;;;6.82;4.05;;;23.50;49.50;;;;;;5047339;28;20727;-49
2022/01/06 06:19:50;;;;;;;7.35;4.05;;;23.60;49.50;;;;;;5059214;28;20281;-49
2022/01/06 06:22:23;;;;;;;8.80;4.07;;;23.60;49.60;;;;;;5055582;28;20342;-56
2022/01/06 06:24:53;;;;;;;9.05;4.40;;;23.60;49.60;;;;;;5048911;28;20274;-57
2022/01/06 06:27:24;;;;;;;6.78;3.72;;;23.50;49.50;;;;;;5066173;28;20286;-56
2022/01/06 06:29:54;;;;;;;7.88;4.32;;;23.50;49.50;;;;;;5068304;28;20223;-55
2022/01/06 06:32:25;;;;;;;7.10;3.97;;;23.60;49.60;;;;;;5067328;28;20297;-49
2022/01/06 06:34:55;;;;;;;6.43;3.97;;;23.50;49.60;;;;;;5054615;28;20217;-52
2022/01/06 06:37:28;;;;;;;6.85;3.65;;;23.50;49.70;;;;;;5053101;28;20717;-53
2022/01/06 06:39:59;;;;;;;5.35;3.63;;;23.50;49.70;;;;;;5057182;28;20278;-50
2022/01/06 06:42:30;;;;;;;7.38;3.60;;;23.50;49.70;;;;;;5063778;28;20249;-57
2022/01/06 06:45:00;;;;;;;4.63;2.58;;;23.50;49.70;;;;;;5066358;28;20214;-52
2022/01/06 06:47:34;;;;;;;4.78;1.92;;;23.50;49.20;;;;;;5051539;28;20646;-59
2022/01/06 06:50:05;;;;;;;4.25;2.08;;;23.50;47.90;;;;;;5065496;28;20566;-53
2022/01/06 06:52:37;;;;;;;5.80;2.17;;;23.50;47.40;;;;;;5064141;28;20242;-52
2022/01/06 06:55:08;;;;;;;7.57;2.05;;;23.40;47.20;;;;;;5051097;28;20306;-44
2022/01/06 06:57:38;;;;;;;4.85;1.85;;;23.40;47.30;;;;;;5051293;28;20290;-55
2022/01/06 07:00:10;;;;;;;5.53;2.20;;;23.40;47.50;;;;;;5049918;28;21669;-52
2022/01/06 07:02:41;;;;;;;5.32;2.22;;;23.40;47.60;;;;;;5052111;28;20260;-50
2022/01/06 07:05:12;;;;;;;5.38;2.00;;;23.40;47.70;;;;;;5065619;28;20294;-52
2022/01/06 07:07:45;;;;;;;4.38;2.17;;;23.30;47.90;;;;;;5062197;28;20277;-48
2022/01/06 07:10:15;;;;;;;5.35;2.00;;;23.30;47.90;;;;;;5051937;28;20647;-52
2022/01/06 07:12:47;;;;;;;5.47;2.25;;;23.30;48.00;;;;;;5054274;28;20751;-53
2022/01/06 07:15:19;;;;;;;4.72;2.10;;;23.30;48.00;;;;;;5061856;28;20654;-48
2022/01/06 07:17:50;;;;;;;4.85;2.15;;;23.30;48.10;;;;;;5048542;28;20289;-53
2022/01/06 07:21:12;;;;;;;4.53;1.85;;;23.30;48.30;;;;;;5053014;28;20278;-54
2022/01/06 07:23:44;;;;;;;4.82;2.10;;;23.30;48.40;;;;;;5049501;28;21010;-51
2022/01/06 07:26:15;;;;;;;4.53;2.00;;;23.30;48.30;;;;;;5041093;28;20307;-47
2022/01/06 07:28:45;;;;;;;4.30;1.85;;;23.20;48.20;;;;;;5065189;28;20667;-56
2022/01/06 07:31:16;;;;;;;4.25;1.98;;;23.20;48.30;;;;;;5064349;28;20695;-52
2022/01/06 07:33:47;;;;;;;2.55;1.70;;;23.20;48.40;;;;;;5063083;28;20297;-47
2022/01/06 07:36:17;;;;;;;3.92;1.80;;;23.20;48.30;;;;;;5063963;28;20702;-46
2022/01/06 07:38:49;;;;;;;4.25;1.90;;;23.20;48.40;;;;;;5052772;28;20274;-57
2022/01/06 07:41:20;;;;;;;4.68;2.17;;;23.20;48.40;;;;;;5050006;28;20283;-54
2022/01/06 07:43:50;;;;;;;3.65;1.90;;;23.20;48.40;;;;;;5051084;28;20219;-53
2022/01/06 07:46:21;;;;;;;4.75;1.83;;;23.20;49.10;;;;;;5049949;28;20278;-58
2022/01/06 07:48:57;;;;;;;2.65;1.60;;;23.10;48.40;;;;;;5055890;28;20282;-53
2022/01/06 07:51:28;;;;;;;3.22;1.70;;;23.20;48.50;;;;;;5056270;28;20207;-43
2022/01/06 07:54:01;;;;;;;4.18;1.70;;;23.10;48.50;;;;;;5051995;28;20286;-50
2022/01/06 07:56:32;;;;;;;4.60;1.80;;;23.10;48.50;;;;;;5061336;28;20315;-49
2022/01/06 07:59:03;;;;;;;5.10;2.10;;;23.10;48.50;;;;;;5045733;28;20760;-49
2022/01/06 08:01:33;;;;;;;2.53;1.50;;;23.10;48.50;;;;;;5057119;28;20274;-56
2022/01/06 08:04:04;;;;;;;3.40;1.52;;;23.10;48.60;;;;;;5063203;28;20982;-49
2022/01/06 08:06:34;;;;;;;2.80;1.73;;;23.00;48.50;;;;;;5055358;28;20285;-53
2022/01/06 08:09:06;;;;;;;4.78;1.98;;;23.00;48.50;;;;;;5053169;28;20209;-50
2022/01/06 08:11:37;;;;;;;5.20;1.67;;;23.00;48.60;;;;;;5053408;28;20322;-53
2022/01/06 08:14:07;;;;;;;2.90;1.90;;;23.00;48.60;;;;;;5066841;28;20282;-47
2022/01/06 08:16:38;;;;;;;3.90;1.85;;;23.00;48.70;;;;;;5048569;28;20319;-53
2022/01/06 08:19:08;;;;;;;3.08;1.60;;;23.00;48.70;;;;;;5065668;28;20277;-56
2022/01/06 08:21:39;;;;;;;3.63;1.92;;;23.00;48.70;;;;;;5061667;28;20278;-54
2022/01/06 08:24:11;;;;;;;3.83;2.00;;;23.00;48.70;;;;;;5061646;28;20282;-57
2022/01/06 08:26:42;;;;;;;3.05;1.83;;;23.00;48.70;;;;;;5061724;28;20295;-53
2022/01/06 08:29:12;;;;;;;2.42;1.60;;;22.90;48.70;;;;;;5044080;28;20359;-57
2022/01/06 08:31:43;;;;;;;3.13;1.52;;;22.90;48.70;;;;;;5049621;28;20640;-56
2022/01/06 08:34:13;;;;;;;4.55;1.85;;;22.90;48.70;;;;;;5064739;28;20263;-51
2022/01/06 08:36:43;;;;;;;2.95;1.60;;;22.90;48.70;;;;;;5063269;28;20702;-57
2022/01/06 08:39:16;;;;;;;2.85;1.42;;;22.90;48.80;;;;;;5060412;28;20607;-57
2022/01/06 08:41:46;;;;;;;5.18;1.90;;;22.80;48.70;;;;;;5061066;28;20293;-58
2022/01/06 08:44:17;;;;;;;3.50;1.77;;;22.80;48.80;;;;;;5062318;28;20295;-53
2022/01/06 08:46:48;;;;;;;2.90;1.50;;;22.80;48.80;;;;;;5048696;28;20294;-56
2022/01/06 08:49:18;;;;;;;2.63;1.60;;;22.80;48.80;;;;;;5068357;28;20659;-57
2022/01/06 08:51:49;;;;;;;2.88;1.48;;;22.80;48.90;;;;;;5063794;28;20286;-56
2022/01/06 08:54:22;;;;;;;4.63;1.83;;;22.80;48.90;;;;;;5060344;28;20299;-57
2022/01/06 08:56:52;;;;;;;3.42;1.60;;;22.80;48.90;;;;;;5061894;28;20322;-53
2022/01/06 08:59:23;;;;;;;2.70;1.70;;;22.80;49.00;;;;;;5053340;28;20278;-41
2022/01/06 09:01:53;;;;;;;3.50;1.88;;;22.80;49.00;;;;;;5048644;28;20306;-46
2022/01/06 09:04:25;;;;;;;3.67;1.67;;;22.70;48.90;;;;;;5068060;28;20194;-48
2022/01/06 09:06:56;;;;;;;3.15;2.05;;;22.70;48.90;;;;;;5048661;28;20340;-47
2022/01/06 09:09:28;;;;;;;2.50;1.65;;;22.70;49.00;;;;;;5049748;28;20278;-49
2022/01/06 09:11:59;;;;;;;6.60;3.45;;;22.70;49.00;;;;;;5059244;28;20306;-44
2022/01/06 09:14:29;;;;;;;9.52;4.60;;;22.70;48.90;;;;;;5055352;28;20731;-39
2022/01/06 09:17:00;;;;;;;8.63;4.35;;;22.70;48.80;;;;;;5046790;28;20774;-43
2022/01/06 09:19:31;;;;;;;6.65;3.90;;;22.70;48.80;;;;;;5050054;28;20195;-39
2022/01/06 09:22:01;;;;;;;7.90;4.13;;;22.60;48.80;;;;;;5064144;28;20301;-39
2022/01/06 09:24:33;;;;;;;6.10;3.65;;;22.60;48.90;;;;;;5052593;28;20286;-43
2022/01/06 09:27:04;;;;;;;7.88;3.78;;;22.60;48.90;;;;;;5049514;28;20283;-42
2022/01/06 09:29:35;;;;;;;6.88;3.58;;;22.60;48.90;;;;;;5049281;28;20314;-39
2022/01/06 09:32:06;;;;;;;8.77;4.00;;;22.60;49.00;;;;;;5049262;28;20716;-39
2022/01/06 09:34:36;;;;;;;5.80;3.92;;;22.50;48.90;;;;;;5049450;28;20278;-40
2022/01/06 09:37:07;;;;;;;5.57;3.13;;;22.50;48.90;;;;;;5063430;28;20210;-44
2022/01/06 09:39:40;;;;;;;7.25;3.83;;;22.50;49.00;;;;;;5058517;28;20195;-45
2022/01/06 09:42:12;;;;;;;7.55;3.50;;;22.50;49.10;;;;;;5049800;28;20302;-41
2022/01/06 09:44:43;;;;;;;6.22;3.63;;;22.50;49.10;;;;;;5058048;28;20612;-50
2022/01/06 09:47:13;;;;;;;5.65;3.75;;;22.50;49.10;;;;;;5050532;28;20287;-45
2022/01/06 09:49:44;;;;;;;8.07;3.42;;;22.50;49.10;;;;;;5051679;28;20286;-40
2022/01/06 09:52:16;;;;;;;6.65;3.60;;;22.40;49.10;;;;;;5049529;28;20276;-46
2022/01/06 09:54:48;;;;;;;5.95;3.60;;;22.50;49.10;;;;;;5048848;28;20291;-53
2022/01/06 09:57:19;;;;;;;5.15;3.30;;;22.50;49.10;;;;;;5047334;28;20761;-49
2022/01/06 09:59:49;;;;;;;5.80;3.40;;;22.40;49.10;;;;;;5063569;28;20281;-52
2022/01/06 10:02:20;;;;;;;5.55;3.17;;;22.40;49.20;;;;;;5065352;28;20293;-47
2022/01/06 10:05:01;;;;;;;7.40;3.20;;;22.40;49.20;;;;;;5062170;28;20286;-40
2022/01/06 10:07:39;;;;;;;5.93;3.15;;;22.30;49.20;;;;;;5053690;28;20473;-40
2022/01/06 10:10:16;;;;;;;4.97;3.20;;;22.30;49.20;;;;;;5052446;28;20292;-47
2022/01/06 10:12:56;;;;;;;6.10;3.45;;;22.30;49.20;;;;;;5068219;28;20314;-53
2022/01/06 10:15:28;;;;;;;5.45;3.22;;;22.30;49.20;;;;;;5052484;28;20219;-48
2022/01/06 10:17:58;;;;;;;5.85;3.42;;;22.30;49.30;;;;;;5066360;28;20261;-41
2022/01/06 10:20:29;;;;;;;5.63;3.33;;;22.30;49.30;;;;;;5063628;28;20238;-43
2022/01/06 10:23:00;;;;;;;6.03;3.50;;;22.30;49.30;;;;;;5059652;28;20294;-39
2022/01/06 10:25:43;;;;;;;4.57;3.10;;;22.20;49.30;;;;;;5053464;28;20230;-42
2022/01/06 10:28:18;;;;;;;5.78;3.30;;;22.30;49.30;;;;;;5053112;28;20741;-41
2022/01/06 10:30:49;;;;;;;6.15;2.90;;;22.20;49.30;;;;;;5051111;28;20201;-39
2022/01/06 10:33:20;;;;;;;4.45;2.78;;;22.20;49.30;;;;;;5051075;28;20215;-47
2022/01/06 10:35:51;;;;;;;4.55;2.90;;;22.20;49.30;;;;;;5039182;28;20399;-52
2022/01/06 10:38:29;;;;;;;5.47;3.13;;;22.20;49.30;;;;;;5052194;28;20199;-50
2022/01/06 10:41:15;;;;;;;5.30;2.70;;;22.20;49.50;;;;;;5050769;28;20274;-44
2022/01/06 10:43:50;;;;;;;4.13;2.70;;;22.20;49.30;;;;;;5050163;28;20215;-45
2022/01/06 10:46:40;;;;;;;5.32;3.35;;;22.10;49.30;;;;;;5055260;28;20643;-42
2022/01/06 10:49:11;;;;;;;5.70;3.25;;;22.10;49.30;;;;;;5050639;28;20282;-38
2022/01/06 10:51:44;;;;;;;6.28;3.05;;;22.20;49.40;;;;;;5051995;28;20644;-39
2022/01/06 10:54:17;;;;;;;5.05;2.90;;;22.10;49.30;;;;;;5050837;28;20290;-41
2022/01/06 10:56:59;;;;;;;5.18;2.72;;;22.10;49.40;;;;;;5052620;28;20302;-43
2022/01/06 10:59:32;;;;;;;5.05;3.00;;;22.10;49.40;;;;;;5053618;28;20293;-45
2022/01/06 11:02:03;;;;;;;4.70;2.72;;;22.10;49.40;;;;;;5052182;28;20573;-41
2022/01/06 11:04:34;;;;;;;5.35;2.72;;;22.10;49.40;;;;;;5050208;28;20236;-45
2022/01/06 11:07:05;;;;;;;4.05;2.80;;;22.10;49.50;;;;;;5053492;28;20286;-46
2022/01/06 11:09:38;;;;;;;4.47;2.55;;;22.10;49.50;;;;;;5051739;28;20298;-45
2022/01/06 11:12:32;;;;;;;3.72;2.50;;;22.00;49.40;;;;;;5054891;28;20226;-45
2022/01/06 11:15:04;;;;;;;4.10;2.40;;;22.00;49.40;;;;;;5064240;28;20572;-39
2022/01/06 11:17:34;;;;;;;3.85;2.50;;;22.00;49.40;;;;;;5064946;28;20310;-43
2022/01/06 11:20:05;;;;;;;3.95;2.50;;;22.00;49.40;;;;;;5050910;28;20290;-40
2022/01/06 11:22:35;;;;;;;3.50;2.40;;;22.00;50.10;;;;;;5066025;28;20305;-39
2022/01/06 11:25:06;;;;;;;4.80;2.53;;;22.00;49.50;;;;;;5063469;28;20298;-39
2022/01/06 11:27:39;;;;;;;4.90;2.35;;;22.00;50.10;;;;;;5057503;28;20224;-39
2022/01/06 11:30:14;;;;;;;2.70;2.28;;;21.90;49.50;;;;;;5057770;28;20204;-39
2022/01/06 11:32:45;;;;;;;4.28;2.58;;;21.90;49.50;;;;;;5050888;28;20307;-42
2022/01/06 11:35:21;;;;;;;4.93;2.58;;;21.90;49.50;;;;;;5049960;28;20317;-39
2022/01/06 11:37:53;;;;;;;4.53;2.28;;;21.90;49.50;;;;;;5051694;28;20246;-38
2022/01/06 11:40:34;;;;;;;4.32;2.63;;;21.90;49.50;;;;;;5049594;28;20286;-38
2022/01/06 11:43:06;;;;;;;3.42;2.00;;;21.90;49.60;;;;;;5050295;28;20301;-38
2022/01/06 11:45:37;;;;;;;4.53;2.08;;;21.90;49.60;;;;;;5062475;28;20278;-38
2022/01/06 11:48:10;;;;;;;5.85;2.58;;;21.90;49.60;;;;;;5057243;28;20670;-38
2022/01/06 11:50:42;;;;;;;3.70;2.30;;;21.80;49.50;;;;;;5064438;28;20300;-50
2022/01/06 11:53:13;;;;;;;3.72;2.20;;;21.80;49.50;;;;;;5049847;28;20314;-38
2022/01/06 11:55:44;;;;;;;4.10;2.58;;;21.80;49.60;;;;;;5053671;28;20283;-39
2022/01/06 11:58:19;;;;;;;3.30;2.30;;;21.80;50.20;;;;;;5067933;28;20234;-38
2022/01/06 12:00:58;;;;;;;5.00;2.45;;;21.80;49.60;;;;;;5051426;28;20191;-38
2022/01/06 12:03:38;;;;;;;3.30;2.00;;;21.80;49.60;;;;;;5051593;28;20297;-38
2022/01/06 12:06:10;;;;;;;3.80;2.00;;;21.80;49.60;;;;;;5047431;28;20200;-53
2022/01/06 12:08:42;;;;;;;4.10;2.10;;;21.80;49.60;;;;;;5050299;28;20253;-40
2022/01/06 12:11:23;;;;;;;3.92;2.05;;;21.70;49.60;;;;;;5053884;28;20203;-40
2022/01/06 12:13:59;;;;;;;2.80;1.95;;;21.70;49.60;;;;;;5061234;28;20298;-41
2022/01/06 12:16:31;;;;;;;2.75;2.03;;;21.70;49.60;;;;;;5063794;28;20553;-42
2022/01/06 12:19:03;;;;;;;3.72;2.20;;;21.70;49.60;;;;;;5049486;28;20745;-43
2022/01/06 12:21:34;;;;;;;3.80;1.90;;;21.70;49.70;;;;;;5062869;28;20298;-47
2022/01/06 12:24:07;;;;;;;3.25;1.75;;;21.70;49.70;;;;;;5063213;28;20273;-44
2022/01/06 12:26:39;;;;;;;2.85;2.10;;;21.70;49.70;;;;;;5064442;28;20247;-48
2022/01/06 12:29:16;;;;;;;4.40;1.90;;;21.70;49.70;;;;;;5062118;28;20581;-46
2022/01/06 12:31:50;;;;;;;3.10;1.90;;;21.70;49.70;;;;;;5062247;28;20322;-43
2022/01/06 12:34:22;;;;;;;3.83;2.10;;;21.60;49.60;;;;;;5064641;28;20286;-53
2022/01/06 12:36:52;;;;;;;3.00;1.80;;;21.60;49.70;;;;;;5049174;28;20705;-46
2022/01/06 12:39:24;;;;;;;3.10;2.00;;;21.60;49.70;;;;;;5048407;28;20627;-39
2022/01/06 12:41:56;;;;;;;3.70;2.03;;;21.60;49.70;;;;;;5061340;28;20310;-43
2022/01/06 12:44:29;;;;;;;4.20;2.13;;;21.60;49.70;;;;;;5061588;28;20235;-47
2022/01/06 12:47:00;;;;;;;3.95;1.95;;;21.60;49.70;;;;;;5062051;28;20209;-49
2022/01/06 12:49:30;;;;;;;2.42;1.80;;;21.60;49.70;;;;;;5063773;28;20318;-39
2022/01/06 12:52:01;;;;;;;2.25;1.80;;;21.50;49.70;;;;;;5049175;28;20302;-38
2022/01/06 12:54:35;;;;;;;3.42;1.85;;;21.50;49.70;;;;;;5060156;28;20196;-41
2022/01/06 12:57:06;;;;;;;3.88;1.90;;;21.60;49.70;;;;;;5050718;28;20782;-38
2022/01/06 12:59:41;;;;;;;3.58;2.03;;;21.50;49.70;;;;;;5059601;28;20234;-46
2022/01/06 13:02:13;;;;;;;3.42;2.03;;;21.50;49.70;;;;;;5050871;28;20249;-45
2022/01/06 13:04:46;;;;;;;3.22;1.58;;;21.50;49.70;;;;;;5051168;28;20202;-40
2022/01/06 13:07:17;;;;;;;4.50;1.73;;;21.50;49.70;;;;;;5056246;28;20286;-49
2022/01/06 13:09:49;;;;;;;3.63;1.88;;;21.50;49.70;;;;;;5051145;28;20361;-41
2022/01/06 13:12:25;;;;;;;4.35;1.60;;;21.50;49.80;;;;;;5049283;28;20754;-39
2022/01/06 13:14:58;;;;;;;2.97;1.80;;;21.40;49.80;;;;;;5047163;28;20234;-43
2022/01/06 13:17:30;;;;;;;2.40;1.30;;;21.50;49.90;;;;;;5046200;28;20215;-43